Madera Canyon, Arizona
Current Conditions -  °F | °C
As of 4:53 PM on Saturday 25 Oct 2014 (Local Time) from KTUS Reporting Station
Broken Clouds Broken Clouds  
Wind Chill: 92°   Ceiling: 10000
Heat Index: 92°   Visibility: 10mi
Dew Point: 48°   Wind: 10mph
Humidity: 22%   Direction: 220°SW
Pressure: 30.01"   Gusts: NA
Location:  31.8307°N, 111.034°W
Report Text: KTUS 252353Z 22009KT 10SM BKN100 33/09 A3001 RMK AO2 SLP118 T03330089 10350 20311 56010
Loading
Personal Weather Stations






























Interactive Weather Map
Tropical Storm Tracking
New forecast layout! Learn more

10-Day Weather Forecast

Advertisements
Track Severe Weather on mobile